Hlavní strana
METAR-TAF:

METAR-TAF

Letiště :

Sogndal, Norsko

zeměpisná šířka: 61-09N, zeměpisná délka: 007-08E, výška: 49 m

Aktuální stav počasí

Zpráva byla vytvořena před 4 hodinami a 42 minutami, v 19:50 UTC
Západojihozápadní vítr 10 kt
Teplota 2°C
Vlhkost vzduchu 87%
Tlak 1025 hPa
Viditelnost 10 km a více
Polojasno ve výšce 3000 ft

METAR: ENSG 211950Z 24010KT 9999 SCT030 02/00 Q1025 RMK WIND 3806FT 26017KT

Čas: 01:32 (00:32 UTC)


TAF: chybějící

Stav a předpovědi počasí z více než 4 000 letišť (zprávy METAR a TAF).

Červené a žluté tečky na mapě představují dostupné meteorologické stanice.

Když kurzor umístíte na tečku, zobrazí se název stanice.

Pak kliknutím zobrazíte stav a předpověď počasí.

Chcete-li změnit mapu, kliknutím na zelené tlačítko se znaménkem +mapu přiblížíte, kliknutím na zelené tlačítko se znaménkem – mapu oddálíte a kliknutím na zelené šipky přejdete na sousední mapy.


METAR-TAF: